createdAt,value
2022-12-23T00:00:34.431Z,76.81
2022-12-23T00:01:37.769Z,76.80
2022-12-23T00:02:41.145Z,76.76
2022-12-23T00:03:44.657Z,76.77
2022-12-23T00:04:47.739Z,76.77
2022-12-23T00:05:51.245Z,76.70
2022-12-23T00:06:54.380Z,76.80
2022-12-23T00:07:57.459Z,76.70
2022-12-23T00:09:00.763Z,76.80
2022-12-23T00:10:05.086Z,76.76
2022-12-23T00:11:11.627Z,76.63
2022-12-23T00:12:33.127Z,76.60
2022-12-23T00:13:54.735Z,76.58
2022-12-23T00:15:06.997Z,76.54
2022-12-23T00:16:13.224Z,76.55
2022-12-23T00:17:23.651Z,76.62
2022-12-23T00:18:21.383Z,76.50
2022-12-23T00:19:24.647Z,76.56
2022-12-23T00:20:27.783Z,76.56
2022-12-23T00:21:30.837Z,76.42
2022-12-23T00:22:52.312Z,76.44
2022-12-23T00:23:55.496Z,76.41
2022-12-23T00:24:58.529Z,76.53
2022-12-23T00:26:01.760Z,76.49
2022-12-23T00:27:04.816Z,76.51
2022-12-23T00:28:16.341Z,76.46
2022-12-23T00:29:19.589Z,76.55
2022-12-23T00:30:22.628Z,76.55
2022-12-23T00:31:26.047Z,76.53
2022-12-23T00:32:29.260Z,76.49
2022-12-23T00:33:43.598Z,76.46
2022-12-23T00:34:46.672Z,76.55
2022-12-23T00:35:50.430Z,76.44
2022-12-23T00:36:53.961Z,76.41
2022-12-23T00:37:56.933Z,76.40
2022-12-23T00:39:18.771Z,76.51
2022-12-23T00:40:40.038Z,76.44
2022-12-23T00:42:01.495Z,76.50
2022-12-23T00:43:04.663Z,76.54
2022-12-23T00:44:07.690Z,76.73
2022-12-23T00:45:17.026Z,76.63
2022-12-23T00:46:20.181Z,76.73
2022-12-23T00:47:41.417Z,76.62
2022-12-23T00:49:02.871Z,76.69
2022-12-23T00:50:07.206Z,76.69
2022-12-23T00:51:10.367Z,76.60
2022-12-23T00:52:15.054Z,76.68
2022-12-23T00:53:18.771Z,76.65
2022-12-23T00:54:21.993Z,76.71
2022-12-23T00:55:25.246Z,76.62
2022-12-23T00:56:28.502Z,76.66
2022-12-23T00:57:31.734Z,76.47
2022-12-23T00:58:34.884Z,76.55
2022-12-23T00:59:38.185Z,76.51
2022-12-23T01:01:00.149Z,76.41
2022-12-23T01:02:22.162Z,76.38
2022-12-23T01:03:43.933Z,76.37
2022-12-23T01:05:05.538Z,76.46
2022-12-23T01:06:08.988Z,76.53
2022-12-23T01:07:12.137Z,76.46
2022-12-23T01:08:15.304Z,76.51
2022-12-23T01:09:18.465Z,76.54
2022-12-23T01:10:21.857Z,76.63
2022-12-23T01:11:25.399Z,76.51
2022-12-23T01:12:28.505Z,76.45
2022-12-23T01:13:31.962Z,76.45
2022-12-23T01:14:35.346Z,76.54
2022-12-23T01:15:38.485Z,76.57
2022-12-23T01:16:42.113Z,76.68
2022-12-23T01:17:45.447Z,76.55
2022-12-23T01:18:48.736Z,76.67
2022-12-23T01:19:51.900Z,76.58
2022-12-23T01:20:54.961Z,76.63
2022-12-23T01:21:58.128Z,76.44
2022-12-23T01:23:01.351Z,76.38
2022-12-23T01:24:05.164Z,76.42
2022-12-23T01:25:08.980Z,76.44
2022-12-23T01:26:12.748Z,76.33
2022-12-23T01:27:15.854Z,76.28
2022-12-23T01:28:19.018Z,76.28
2022-12-23T01:29:22.210Z,76.38
2022-12-23T01:30:25.278Z,76.22
2022-12-23T01:31:29.022Z,76.33
2022-12-23T01:32:32.145Z,76.36
2022-12-23T01:33:35.333Z,76.26
2022-12-23T01:34:38.571Z,76.34
2022-12-23T01:35:41.725Z,76.30
2022-12-23T01:36:44.903Z,76.22
2022-12-23T01:37:48.221Z,76.18
2022-12-23T01:38:51.773Z,76.18
2022-12-23T01:39:54.904Z,76.13
2022-12-23T01:40:58.263Z,76.24
2022-12-23T01:42:19.531Z,76.33
2022-12-23T01:43:23.612Z,76.36
2022-12-23T01:44:55.622Z,76.31
2022-12-23T01:45:58.791Z,76.24
2022-12-23T01:47:05.768Z,76.12
2022-12-23T01:48:12.434Z,76.16
2022-12-23T01:49:15.597Z,76.15
2022-12-23T01:50:31.601Z,76.23
2022-12-23T01:51:35.839Z,76.08
2022-12-23T01:52:42.629Z,76.11
2022-12-23T01:53:49.277Z,76.25
2022-12-23T01:54:53.270Z,76.19
2022-12-23T01:56:08.856Z,76.16
2022-12-23T01:57:12.641Z,76.14
2022-12-23T01:58:22.249Z,76.24
2022-12-23T01:59:44.199Z,76.13
2022-12-23T02:01:05.814Z,76.09
2022-12-23T02:02:27.661Z,76.15
2022-12-23T02:03:43.665Z,76.15
2022-12-23T02:04:49.036Z,76.13
2022-12-23T02:05:53.492Z,76.15
2022-12-23T02:07:14.803Z,76.16
2022-12-23T02:08:36.945Z,76.21
2022-12-23T02:09:40.440Z,76.15
2022-12-23T02:10:53.073Z,76.14
2022-12-23T02:12:20.874Z,76.13
2022-12-23T02:13:36.321Z,76.22
2022-12-23T02:15:16.495Z,76.10
2022-12-23T02:16:19.953Z,76.20
2022-12-23T02:17:26.712Z,76.27
2022-12-23T02:18:52.623Z,76.36
2022-12-23T02:20:24.861Z,76.47
2022-12-23T02:21:43.792Z,76.47
2022-12-23T02:22:56.742Z,76.45
2022-12-23T02:24:35.031Z,76.42
2022-12-23T02:26:04.479Z,76.36
2022-12-23T02:27:34.660Z,76.30
2022-12-23T02:28:44.321Z,76.31
2022-12-23T02:30:22.943Z,76.37
2022-12-23T02:31:55.124Z,76.54
2022-12-23T02:33:10.951Z,76.61
2022-12-23T02:34:20.741Z,76.49
2022-12-23T02:35:36.257Z,76.61
2022-12-23T02:36:57.653Z,76.59
2022-12-23T02:38:19.443Z,76.77
2022-12-23T02:39:28.618Z,76.73
2022-12-23T02:40:44.436Z,76.79
2022-12-23T02:42:07.696Z,76.86
2022-12-23T02:43:20.238Z,76.95
2022-12-23T02:44:27.294Z,77.00
2022-12-23T02:45:37.143Z,76.87
2022-12-23T02:46:47.129Z,76.80
2022-12-23T02:47:54.462Z,76.78
2022-12-23T02:49:06.973Z,76.64
2022-12-23T02:50:14.122Z,76.41
2022-12-23T02:51:20.575Z,76.38
2022-12-23T02:52:27.318Z,76.42
2022-12-23T02:53:42.910Z,76.45
2022-12-23T02:54:52.302Z,76.43
2022-12-23T02:55:57.501Z,76.45
2022-12-23T02:57:04.248Z,76.43
2022-12-23T02:58:10.961Z,76.34
2022-12-23T02:59:17.764Z,76.41
2022-12-23T03:00:22.318Z,76.27
2022-12-23T03:01:29.226Z,76.33
2022-12-23T03:02:37.987Z,76.25
2022-12-23T03:03:42.200Z,76.27
2022-12-23T03:04:45.425Z,76.25
2022-12-23T03:05:50.378Z,76.29
2022-12-23T03:06:55.500Z,76.27
2022-12-23T03:08:04.329Z,76.12
2022-12-23T03:09:08.204Z,76.10
2022-12-23T03:10:21.226Z,76.08
2022-12-23T03:11:28.087Z,76.13
2022-12-23T03:12:34.915Z,76.06
2022-12-23T03:13:59.645Z,76.08
2022-12-23T03:15:29.720Z,76.09
2022-12-23T03:16:42.519Z,76.04
2022-12-23T03:18:15.837Z,75.91
2022-12-23T03:19:31.981Z,75.88
2022-12-23T03:20:50.644Z,75.93
2022-12-23T03:21:57.381Z,75.84
2022-12-23T03:23:07.226Z,75.80
2022-12-23T03:24:29.080Z,75.74
2022-12-23T03:25:35.721Z,75.76
2022-12-23T03:26:42.528Z,75.77
2022-12-23T03:27:49.247Z,75.75
2022-12-23T03:29:15.361Z,75.89
2022-12-23T03:30:20.508Z,75.71
2022-12-23T03:31:26.995Z,75.65
2022-12-23T03:32:36.427Z,75.67
2022-12-23T03:33:44.833Z,75.85
2022-12-23T03:34:50.219Z,75.76
2022-12-23T03:35:56.906Z,75.82
2022-12-23T03:37:03.533Z,75.61
2022-12-23T03:38:07.891Z,75.63
2022-12-23T03:39:14.666Z,75.58
2022-12-23T03:40:21.579Z,75.44
2022-12-23T03:41:28.288Z,75.53
2022-12-23T03:42:35.039Z,75.46
2022-12-23T03:43:46.751Z,75.61
2022-12-23T03:45:19.143Z,75.51
2022-12-23T03:45:58.674Z,75.56
2022-12-23T03:47:11.378Z,75.55
2022-12-23T03:48:30.271Z,75.39
2022-12-23T03:50:50.445Z,75.46
2022-12-23T03:52:05.886Z,75.43
2022-12-23T03:53:12.516Z,75.36
2022-12-23T03:54:19.320Z,75.49
2022-12-23T03:55:25.996Z,75.51
2022-12-23T03:56:32.601Z,75.44
2022-12-23T03:57:42.553Z,75.42
2022-12-23T03:58:55.368Z,75.50
2022-12-23T03:59:58.638Z,75.38
2022-12-23T04:01:11.465Z,75.38
2022-12-23T04:02:24.984Z,75.41
2022-12-23T04:05:05.740Z,75.53
2022-12-23T04:06:12.563Z,75.40
2022-12-23T04:07:19.296Z,75.38
2022-12-23T04:09:37.374Z,75.48
2022-12-23T04:10:40.705Z,75.42
2022-12-23T04:11:44.037Z,75.45
2022-12-23T04:12:48.419Z,75.47
2022-12-23T04:13:53.102Z,75.50
2022-12-23T04:14:56.346Z,75.50
2022-12-23T04:16:01.254Z,75.56
2022-12-23T04:17:04.423Z,75.51
2022-12-23T04:18:08.869Z,75.46
2022-12-23T04:19:12.053Z,75.46
2022-12-23T04:20:15.857Z,75.43
2022-12-23T04:21:19.019Z,75.49
2022-12-23T04:22:22.102Z,75.51
2022-12-23T04:23:25.277Z,75.50
2022-12-23T04:24:28.526Z,75.61
2022-12-23T04:25:31.616Z,75.54
2022-12-23T04:26:34.991Z,75.56
2022-12-23T04:27:38.419Z,75.63
2022-12-23T04:28:41.667Z,75.70
2022-12-23T04:29:44.835Z,75.82
2022-12-23T04:30:48.125Z,75.74
2022-12-23T04:31:51.228Z,75.72
2022-12-23T04:32:54.470Z,75.76
2022-12-23T04:33:57.612Z,75.67
2022-12-23T04:35:00.788Z,75.71
2022-12-23T04:36:04.195Z,75.69
2022-12-23T04:37:07.245Z,75.88
2022-12-23T04:38:10.757Z,75.88
2022-12-23T04:39:13.914Z,75.93
2022-12-23T04:40:17.325Z,75.90
2022-12-23T04:41:20.563Z,75.77
2022-12-23T04:42:24.041Z,75.73
2022-12-23T04:43:27.203Z,75.85
2022-12-23T04:44:30.396Z,75.83
2022-12-23T04:45:33.586Z,75.83
2022-12-23T04:46:36.795Z,75.81
2022-12-23T04:47:40.251Z,75.77
2022-12-23T04:48:44.084Z,75.83
2022-12-23T04:49:47.391Z,75.86
2022-12-23T04:50:51.335Z,75.72
2022-12-23T04:51:54.306Z,75.81
2022-12-23T04:52:57.244Z,75.68
2022-12-23T04:54:00.341Z,75.70
2022-12-23T04:55:03.656Z,75.66
2022-12-23T04:56:07.482Z,75.63
2022-12-23T04:57:10.636Z,75.72
2022-12-23T04:58:13.876Z,75.82
2022-12-23T04:59:17.088Z,75.89
2022-12-23T05:00:20.775Z,75.90
2022-12-23T05:01:24.123Z,75.87
2022-12-23T05:02:27.432Z,75.78
2022-12-23T05:03:30.875Z,75.76
2022-12-23T05:04:34.017Z,75.79
2022-12-23T05:05:44.884Z,75.79
2022-12-23T05:06:48.063Z,75.64
2022-12-23T05:07:51.577Z,75.59
2022-12-23T05:08:54.629Z,75.65
2022-12-23T05:09:59.617Z,75.53
2022-12-23T05:11:02.932Z,75.56
2022-12-23T05:12:06.121Z,75.58
2022-12-23T05:13:09.342Z,75.68
2022-12-23T05:14:12.537Z,75.61
2022-12-23T05:15:15.612Z,75.68
2022-12-23T05:16:19.201Z,75.55
2022-12-23T05:17:22.567Z,75.60
2022-12-23T05:18:25.751Z,75.62
2022-12-23T05:19:28.947Z,75.69
2022-12-23T05:20:32.115Z,75.66
2022-12-23T05:21:35.296Z,75.82
2022-12-23T05:22:38.458Z,75.75
2022-12-23T05:23:41.635Z,75.87
2022-12-23T05:24:44.854Z,75.81
2022-12-23T05:25:52.763Z,75.80
2022-12-23T05:27:00.226Z,75.88
2022-12-23T05:28:01.185Z,75.76
2022-12-23T05:29:05.627Z,75.63
2022-12-23T05:30:10.304Z,75.55
2022-12-23T05:31:13.890Z,75.42
2022-12-23T05:32:17.140Z,75.42
2022-12-23T05:33:20.263Z,75.52
2022-12-23T05:34:23.471Z,75.43
2022-12-23T05:35:27.372Z,75.41
2022-12-23T05:36:30.700Z,75.53
2022-12-23T05:37:33.894Z,75.42
2022-12-23T05:38:37.064Z,75.43
2022-12-23T05:39:40.454Z,75.54
2022-12-23T05:40:43.612Z,75.57
2022-12-23T05:41:47.001Z,75.57
2022-12-23T05:42:49.980Z,75.58
2022-12-23T05:43:53.172Z,75.62
2022-12-23T05:44:56.371Z,75.67
2022-12-23T05:45:59.530Z,75.67
2022-12-23T05:47:02.660Z,75.68
2022-12-23T05:48:06.031Z,75.67
2022-12-23T05:49:09.184Z,75.80
2022-12-23T05:50:12.920Z,75.71
2022-12-23T05:51:15.993Z,75.70
2022-12-23T05:52:19.242Z,75.82
2022-12-23T05:53:23.331Z,75.74
2022-12-23T05:54:26.602Z,75.80
2022-12-23T05:55:29.789Z,75.81
2022-12-23T05:56:33.039Z,75.85
2022-12-23T05:57:36.222Z,75.75
2022-12-23T05:58:39.298Z,75.82
2022-12-23T05:59:42.546Z,75.81
2022-12-23T06:00:45.864Z,75.85
2022-12-23T06:01:49.007Z,75.86
2022-12-23T06:02:54.234Z,75.75
2022-12-23T06:03:57.308Z,75.88
2022-12-23T06:05:00.587Z,75.84
2022-12-23T06:06:04.042Z,75.85
2022-12-23T06:07:07.193Z,75.98
2022-12-23T06:08:10.285Z,75.91
2022-12-23T06:09:13.454Z,76.06
2022-12-23T06:10:16.849Z,75.97
2022-12-23T06:11:19.900Z,75.96
2022-12-23T06:12:22.929Z,76.04
2022-12-23T06:13:26.130Z,76.19
2022-12-23T06:14:29.685Z,76.08
2022-12-23T06:15:32.977Z,76.16
2022-12-23T06:16:36.277Z,76.03
2022-12-23T06:17:39.354Z,76.04
2022-12-23T06:18:42.616Z,76.05
2022-12-23T06:19:46.864Z,76.03
2022-12-23T06:20:49.917Z,76.12
2022-12-23T06:21:52.852Z,76.13
2022-12-23T06:22:55.878Z,76.06
2022-12-23T06:23:58.847Z,76.05
2022-12-23T06:25:02.146Z,76.06
2022-12-23T06:26:05.437Z,76.17
2022-12-23T06:27:08.611Z,76.18
2022-12-23T06:28:11.829Z,76.11
2022-12-23T06:29:15.014Z,76.19
2022-12-23T06:30:18.450Z,76.29
2022-12-23T06:31:21.746Z,76.16
2022-12-23T06:32:24.992Z,76.21
2022-12-23T06:33:28.184Z,76.38
2022-12-23T06:34:31.343Z,76.45
2022-12-23T06:35:34.523Z,76.41
2022-12-23T06:36:37.702Z,76.46
2022-12-23T06:37:40.860Z,76.36
2022-12-23T06:38:44.020Z,76.37
2022-12-23T06:39:47.222Z,76.46
2022-12-23T06:40:50.485Z,76.44
2022-12-23T06:41:53.699Z,76.52
2022-12-23T06:42:56.848Z,76.40
2022-12-23T06:44:00.017Z,76.35
2022-12-23T06:45:03.552Z,76.46
2022-12-23T06:46:07.198Z,76.30
2022-12-23T06:47:10.435Z,76.40
2022-12-23T06:48:13.783Z,76.26
2022-12-23T06:49:17.003Z,76.19
2022-12-23T06:50:20.232Z,76.14
2022-12-23T06:51:23.441Z,76.20
2022-12-23T06:52:26.755Z,76.03
2022-12-23T06:53:29.930Z,76.04
2022-12-23T06:54:33.344Z,75.99
2022-12-23T06:55:36.619Z,76.09
2022-12-23T06:56:39.876Z,76.12
2022-12-23T06:57:42.990Z,76.01
2022-12-23T06:58:46.149Z,76.04
2022-12-23T06:59:49.237Z,75.91
2022-12-23T07:00:52.698Z,75.96
2022-12-23T07:01:56.252Z,75.99
2022-12-23T07:02:59.704Z,75.91
2022-12-23T07:04:03.228Z,75.97
2022-12-23T07:05:06.703Z,75.95
2022-12-23T07:06:10.461Z,75.88
2022-12-23T07:07:13.530Z,75.98
2022-12-23T07:08:18.576Z,75.96
2022-12-23T07:09:21.865Z,75.92
2022-12-23T07:10:24.985Z,75.82
2022-12-23T07:11:28.083Z,75.87
2022-12-23T07:12:31.223Z,75.86
2022-12-23T07:13:34.463Z,75.68
2022-12-23T07:14:37.421Z,75.67
2022-12-23T07:15:40.588Z,75.68
2022-12-23T07:16:44.768Z,75.81
2022-12-23T07:17:47.770Z,75.84
2022-12-23T07:18:50.920Z,75.87
2022-12-23T07:19:54.045Z,75.84
2022-12-23T07:21:00.104Z,75.92
2022-12-23T07:22:03.401Z,76.11
2022-12-23T07:23:06.715Z,76.11
2022-12-23T07:24:10.195Z,76.00
2022-12-23T07:25:13.356Z,75.89
2022-12-23T07:26:16.647Z,76.00
2022-12-23T07:27:19.744Z,75.88
2022-12-23T07:28:23.712Z,75.85
2022-12-23T07:29:26.792Z,75.82
2022-12-23T07:30:30.228Z,75.97
2022-12-23T07:31:33.338Z,76.00
2022-12-23T07:32:36.443Z,75.98
2022-12-23T07:33:39.674Z,76.09
2022-12-23T07:34:42.882Z,76.11
2022-12-23T07:35:45.903Z,76.20
2022-12-23T07:36:49.061Z,76.06
2022-12-23T07:37:53.411Z,76.06
2022-12-23T07:38:56.540Z,76.23
2022-12-23T07:40:04.998Z,76.13
2022-12-23T07:41:04.746Z,76.25
2022-12-23T07:43:12.961Z,76.31
2022-12-23T07:44:16.144Z,76.29
2022-12-23T07:45:19.332Z,76.30
2022-12-23T07:46:22.804Z,76.18
2022-12-23T07:47:25.943Z,76.27
2022-12-23T07:48:29.111Z,76.26
2022-12-23T07:49:32.260Z,76.26
2022-12-23T07:50:35.717Z,76.27
2022-12-23T07:51:39.578Z,76.17
2022-12-23T07:52:42.808Z,76.20
2022-12-23T07:53:48.244Z,76.21
2022-12-23T07:54:51.461Z,76.07
2022-12-23T07:55:56.810Z,76.07
2022-12-23T07:56:59.994Z,76.07
2022-12-23T07:58:03.213Z,76.15
2022-12-23T07:59:06.371Z,75.95
2022-12-23T08:00:11.957Z,75.94
2022-12-23T08:01:18.567Z,76.04
2022-12-23T08:02:23.923Z,75.93
2022-12-23T08:03:27.376Z,75.99
2022-12-23T08:04:30.936Z,75.85
2022-12-23T08:05:33.992Z,75.79
2022-12-23T08:06:37.274Z,75.86
2022-12-23T08:07:40.756Z,75.72
2022-12-23T08:08:45.599Z,75.67
2022-12-23T08:09:48.963Z,75.69
2022-12-23T08:10:58.142Z,75.63
2022-12-23T08:12:01.331Z,75.42
2022-12-23T08:13:05.015Z,75.45
2022-12-23T08:14:08.109Z,75.29
2022-12-23T08:15:11.357Z,75.26
2022-12-23T08:16:14.830Z,75.34
2022-12-23T08:17:21.659Z,75.47
2022-12-23T08:18:25.855Z,75.37
2022-12-23T08:19:29.062Z,75.37
2022-12-23T08:20:32.583Z,75.35
2022-12-23T08:21:35.686Z,75.29
2022-12-23T08:22:38.889Z,75.37
2022-12-23T08:23:43.031Z,75.33
2022-12-23T08:24:46.177Z,75.16
2022-12-23T08:25:49.393Z,75.19
2022-12-23T08:26:52.507Z,75.02
2022-12-23T08:27:55.614Z,74.98
2022-12-23T08:29:00.122Z,74.94
2022-12-23T08:30:03.827Z,75.01
2022-12-23T08:32:27.444Z,74.95
2022-12-23T08:33:30.699Z,74.87
2022-12-23T08:34:34.281Z,74.84
2022-12-23T08:35:37.559Z,74.70
2022-12-23T08:36:41.282Z,74.69
2022-12-23T08:37:44.235Z,74.77
2022-12-23T08:38:48.296Z,74.65
2022-12-23T08:39:51.417Z,74.72
2022-12-23T08:40:54.734Z,74.63
2022-12-23T08:41:57.927Z,74.56
2022-12-23T08:43:01.811Z,74.57
2022-12-23T08:44:05.083Z,74.51
2022-12-23T08:45:08.840Z,74.40
2022-12-23T08:46:12.354Z,74.37
2022-12-23T08:47:15.495Z,74.29
2022-12-23T08:48:18.681Z,74.25
2022-12-23T08:49:22.318Z,74.33
2022-12-23T08:50:25.594Z,74.18
2022-12-23T08:51:28.911Z,74.15
2022-12-23T08:52:32.088Z,74.25
2022-12-23T08:53:36.699Z,74.25
2022-12-23T08:54:40.035Z,74.13
2022-12-23T08:55:45.242Z,74.11
2022-12-23T08:56:48.425Z,74.08
2022-12-23T08:57:51.541Z,73.98
2022-12-23T08:58:55.580Z,73.98
2022-12-23T08:59:58.721Z,73.97
2022-12-23T09:01:06.664Z,73.96
2022-12-23T09:02:11.600Z,74.02
2022-12-23T09:03:15.109Z,74.04
2022-12-23T09:04:18.212Z,73.84
2022-12-23T09:05:21.162Z,73.84
2022-12-23T09:06:29.918Z,73.86
2022-12-23T09:07:32.570Z,73.70
2022-12-23T09:08:35.786Z,73.71
2022-12-23T09:09:38.834Z,73.65
2022-12-23T09:10:43.678Z,73.66
2022-12-23T09:11:46.758Z,73.58
2022-12-23T09:12:50.047Z,73.59
2022-12-23T09:13:53.564Z,73.50
2022-12-23T09:14:56.792Z,73.46
2022-12-23T09:15:59.956Z,73.46
2022-12-23T09:17:03.315Z,73.54
2022-12-23T09:18:06.484Z,73.54
2022-12-23T09:19:09.688Z,73.37
2022-12-23T09:20:13.075Z,73.31
2022-12-23T09:21:19.174Z,73.21
2022-12-23T09:22:22.457Z,73.23
2022-12-23T09:23:25.843Z,73.25
2022-12-23T09:24:29.059Z,73.24
2022-12-23T09:25:32.960Z,73.39
2022-12-23T09:26:36.238Z,73.26
2022-12-23T09:27:39.458Z,73.17
2022-12-23T09:28:42.527Z,73.12
2022-12-23T09:29:45.713Z,73.20
2022-12-23T09:30:49.421Z,73.20
2022-12-23T09:31:52.744Z,73.09
2022-12-23T09:32:56.020Z,73.03
2022-12-23T09:33:59.338Z,73.02
2022-12-23T09:35:02.473Z,72.99
2022-12-23T09:36:06.369Z,72.91
2022-12-23T09:37:09.517Z,73.01
2022-12-23T09:38:12.785Z,72.90
2022-12-23T09:39:16.231Z,72.86
2022-12-23T09:40:21.403Z,72.80
2022-12-23T09:41:30.958Z,72.73
2022-12-23T09:42:46.836Z,72.57
2022-12-23T09:44:16.324Z,72.47
2022-12-23T09:46:57.748Z,72.35
2022-12-23T09:48:01.292Z,72.34
2022-12-23T09:49:07.616Z,72.14
2022-12-23T09:50:20.895Z,72.01
2022-12-23T09:51:24.049Z,71.94
2022-12-23T09:53:05.288Z,71.95
2022-12-23T09:54:28.354Z,71.93
2022-12-23T09:55:43.863Z,71.87
2022-12-23T09:56:56.582Z,71.83
2022-12-23T09:58:03.282Z,71.88
2022-12-23T09:59:32.673Z,71.91
2022-12-23T10:00:39.419Z,71.95
2022-12-23T10:02:19.645Z,71.92
2022-12-23T10:03:32.305Z,71.90
2022-12-23T10:05:08.029Z,71.75
2022-12-23T10:06:14.814Z,71.71
2022-12-23T10:07:24.140Z,71.69
2022-12-23T10:08:48.862Z,71.69
2022-12-23T10:09:55.067Z,71.63
2022-12-23T10:11:21.316Z,71.60
2022-12-23T10:12:39.527Z,71.64
2022-12-23T10:15:22.171Z,71.71
2022-12-23T10:16:34.779Z,71.60
2022-12-23T10:17:42.225Z,71.59
2022-12-23T10:18:57.873Z,71.56
2022-12-23T10:20:04.175Z,71.56
2022-12-23T10:21:19.518Z,71.54
2022-12-23T10:22:44.201Z,71.51
2022-12-23T10:23:51.501Z,71.55
2022-12-23T10:24:57.284Z,71.64
2022-12-23T10:26:03.282Z,71.58
2022-12-23T10:27:18.707Z,71.65
2022-12-23T10:28:23.000Z,71.55
2022-12-23T10:29:33.637Z,71.72
2022-12-23T10:32:15.073Z,71.65
2022-12-23T10:33:23.890Z,71.66
2022-12-23T10:34:50.442Z,71.76
2022-12-23T10:37:31.774Z,72.00
2022-12-23T10:38:44.187Z,71.95
2022-12-23T10:40:09.154Z,72.03
2022-12-23T10:41:30.935Z,72.23
2022-12-23T10:42:40.412Z,72.23
2022-12-23T10:44:14.171Z,72.23
2022-12-23T10:46:55.749Z,72.35
2022-12-23T10:49:41.378Z,72.46
2022-12-23T10:50:51.521Z,72.46
2022-12-23T10:52:01.910Z,72.55
2022-12-23T10:53:08.441Z,72.57
2022-12-23T10:54:33.062Z,72.41
2022-12-23T10:55:38.025Z,72.53
2022-12-23T10:56:42.344Z,72.45
2022-12-23T10:57:46.097Z,72.50
2022-12-23T10:58:52.916Z,72.49
2022-12-23T10:59:57.872Z,72.49
2022-12-23T11:01:09.920Z,72.47
2022-12-23T11:02:15.560Z,72.42
2022-12-23T11:03:31.717Z,72.41
2022-12-23T11:04:37.999Z,72.38
2022-12-23T11:05:42.361Z,72.42
2022-12-23T11:07:10.613Z,72.42
2022-12-23T11:07:57.833Z,72.50
2022-12-23T11:09:02.867Z,72.40
2022-12-23T11:10:15.047Z,72.42
2022-12-23T11:11:18.284Z,72.55
2022-12-23T11:12:27.288Z,72.46
2022-12-23T11:13:40.329Z,72.55
2022-12-23T11:14:57.632Z,72.54
2022-12-23T11:16:19.288Z,72.58
2022-12-23T11:17:30.970Z,72.46
2022-12-23T11:18:38.802Z,72.55
2022-12-23T11:19:39.275Z,72.59
2022-12-23T11:20:45.105Z,72.54
2022-12-23T11:21:59.198Z,72.52
2022-12-23T11:23:04.997Z,72.49
2022-12-23T11:24:17.336Z,72.60
2022-12-23T11:25:32.622Z,72.65
2022-12-23T11:26:36.808Z,72.60
2022-12-23T11:27:43.574Z,72.55
2022-12-23T11:28:50.187Z,72.56
2022-12-23T11:29:54.612Z,72.67
2022-12-23T11:31:06.434Z,72.58
2022-12-23T11:33:33.072Z,72.65
2022-12-23T11:34:38.293Z,72.61
2022-12-23T11:35:41.613Z,72.54
2022-12-23T11:36:58.688Z,72.64
2022-12-23T11:38:01.618Z,72.48
2022-12-23T11:39:10.980Z,72.43
2022-12-23T11:40:32.576Z,72.38
2022-12-23T11:41:46.812Z,72.48
2022-12-23T11:44:13.249Z,72.51
2022-12-23T11:45:24.783Z,72.39
2022-12-23T11:46:30.838Z,72.53
2022-12-23T11:47:41.675Z,72.54
2022-12-23T11:48:50.069Z,72.43
2022-12-23T11:49:59.290Z,72.51
2022-12-23T11:51:04.087Z,72.67
2022-12-23T11:52:15.745Z,72.71
2022-12-23T11:53:24.276Z,72.66
2022-12-23T11:54:28.699Z,72.66
2022-12-23T11:55:35.171Z,72.78
2022-12-23T11:56:40.156Z,72.77
2022-12-23T11:57:48.670Z,72.76
2022-12-23T11:58:55.387Z,72.64
2022-12-23T12:00:02.453Z,72.59
2022-12-23T12:01:10.477Z,72.57
2022-12-23T12:02:19.685Z,72.55
2022-12-23T12:03:26.641Z,72.64
2022-12-23T12:04:33.556Z,72.52
2022-12-23T12:05:42.919Z,72.50
2022-12-23T12:06:54.181Z,72.45
2022-12-23T12:07:54.212Z,72.39
2022-12-23T12:08:59.862Z,72.51
2022-12-23T12:10:03.613Z,72.38
2022-12-23T12:11:19.171Z,72.33
2022-12-23T12:12:22.752Z,72.42
2022-12-23T12:13:32.867Z,72.32
2022-12-23T12:14:44.683Z,72.39
2022-12-23T12:16:14.175Z,72.29
2022-12-23T12:17:27.106Z,72.32
2022-12-23T12:18:31.930Z,72.42
2022-12-23T12:20:52.409Z,72.47
2022-12-23T12:21:59.067Z,72.37
2022-12-23T12:23:08.360Z,72.47
2022-12-23T12:24:33.023Z,72.48
2022-12-23T12:25:48.732Z,72.36
2022-12-23T12:26:55.439Z,72.43
2022-12-23T12:28:02.095Z,72.47
2022-12-23T12:29:26.906Z,72.50
2022-12-23T12:30:37.049Z,72.45
2022-12-23T12:31:46.461Z,72.39
2022-12-23T12:34:39.222Z,72.40
2022-12-23T12:35:53.878Z,72.34
2022-12-23T12:37:07.281Z,72.48
2022-12-23T12:38:23.424Z,72.53
2022-12-23T12:39:33.062Z,72.52
2022-12-23T12:40:42.978Z,72.41
2022-12-23T12:41:52.664Z,72.41
2022-12-23T12:43:05.250Z,72.54
2022-12-23T12:44:28.322Z,72.51
2022-12-23T12:45:43.892Z,72.36
2022-12-23T12:47:27.980Z,72.43
2022-12-23T12:48:42.866Z,72.32
2022-12-23T12:49:56.017Z,72.38
2022-12-23T12:51:24.190Z,72.41
2022-12-23T12:52:29.643Z,72.56
2022-12-23T12:53:33.815Z,72.60
2022-12-23T12:54:56.780Z,72.61
2022-12-23T12:56:03.479Z,72.57
2022-12-23T12:57:10.103Z,72.60
2022-12-23T12:58:19.154Z,72.70
2022-12-23T12:59:25.664Z,72.71
2022-12-23T13:00:31.818Z,72.65
2022-12-23T13:01:44.489Z,72.62
2022-12-23T13:03:25.897Z,72.75
2022-12-23T13:06:17.013Z,72.85
2022-12-23T13:07:36.881Z,72.78
2022-12-23T13:08:43.531Z,72.83
2022-12-23T13:10:02.316Z,72.91
2022-12-23T13:11:11.978Z,72.95
2022-12-23T13:12:21.723Z,72.93
2022-12-23T13:13:34.459Z,73.07
2022-12-23T13:15:01.643Z,73.12
2022-12-23T13:16:24.848Z,73.08
2022-12-23T13:18:50.863Z,73.31
2022-12-23T13:20:15.455Z,73.23
2022-12-23T13:21:34.369Z,73.36
2022-12-23T13:22:38.259Z,73.41
2022-12-23T13:23:50.699Z,73.42
2022-12-23T13:24:57.415Z,73.49
2022-12-23T13:26:06.839Z,73.48
2022-12-23T13:27:19.442Z,73.39
2022-12-23T13:28:28.845Z,73.37
2022-12-23T13:29:46.846Z,73.34
2022-12-23T13:32:40.920Z,73.50
2022-12-23T13:33:50.511Z,73.48
2022-12-23T13:35:26.100Z,73.39
2022-12-23T13:36:35.871Z,73.41
2022-12-23T13:37:49.713Z,73.53
2022-12-23T13:39:05.356Z,73.53
2022-12-23T13:40:26.531Z,73.59
2022-12-23T13:41:36.132Z,73.64
2022-12-23T13:42:43.576Z,73.68
2022-12-23T13:43:59.796Z,73.82
2022-12-23T13:45:04.433Z,73.77
2022-12-23T13:46:28.436Z,73.79
2022-12-23T13:48:01.166Z,73.87
2022-12-23T13:49:10.256Z,73.94
2022-12-23T13:50:24.640Z,73.99
2022-12-23T13:51:40.238Z,73.90
2022-12-23T13:52:49.982Z,74.01
2022-12-23T13:54:04.959Z,74.00
2022-12-23T13:55:10.992Z,73.97
2022-12-23T13:56:21.856Z,73.95
2022-12-23T13:57:32.668Z,74.06
2022-12-23T13:58:37.632Z,73.98
2022-12-23T13:59:44.145Z,74.02
2022-12-23T14:01:09.327Z,74.20
2022-12-23T14:02:32.825Z,74.14
2022-12-23T14:03:38.439Z,74.15
2022-12-23T14:04:58.889Z,74.17
2022-12-23T14:06:32.369Z,74.20
2022-12-23T14:07:35.846Z,74.29
2022-12-23T14:08:42.616Z,74.34
2022-12-23T14:09:49.291Z,74.42
2022-12-23T14:10:59.212Z,74.49
2022-12-23T14:12:12.030Z,74.34
2022-12-23T14:13:17.622Z,74.33
2022-12-23T14:14:24.431Z,74.33
2022-12-23T14:15:47.455Z,74.41
2022-12-23T14:17:07.190Z,74.30
2022-12-23T14:18:47.237Z,74.43
2022-12-23T14:21:17.369Z,74.43
2022-12-23T14:22:26.822Z,74.41
2022-12-23T14:23:59.605Z,74.39
2022-12-23T14:25:21.326Z,74.25
2022-12-23T14:26:37.241Z,74.24
2022-12-23T14:27:55.816Z,74.21
2022-12-23T14:29:23.081Z,74.18
2022-12-23T14:30:38.163Z,74.12
2022-12-23T14:31:47.280Z,74.07
2022-12-23T14:32:53.055Z,74.05
2022-12-23T14:34:05.786Z,74.05
2022-12-23T14:35:21.655Z,74.04
2022-12-23T14:36:26.726Z,73.95
2022-12-23T14:38:47.334Z,73.85
2022-12-23T14:39:52.319Z,73.69
2022-12-23T14:41:02.220Z,73.66
2022-12-23T14:42:09.930Z,73.64
2022-12-23T14:43:32.178Z,73.58
2022-12-23T14:44:38.904Z,73.62
2022-12-23T14:45:42.791Z,73.58
2022-12-23T14:46:49.811Z,73.46
2022-12-23T14:47:53.051Z,73.52
2022-12-23T14:49:37.117Z,73.39
2022-12-23T14:50:34.149Z,73.45
2022-12-23T14:51:39.136Z,73.42
2022-12-23T14:52:51.652Z,73.29
2022-12-23T14:54:01.580Z,73.30
2022-12-23T14:55:31.185Z,73.27
2022-12-23T14:56:46.362Z,73.21
2022-12-23T14:57:52.993Z,73.16
2022-12-23T14:59:05.590Z,73.17
2022-12-23T15:00:10.041Z,73.14
2022-12-23T15:01:16.807Z,73.06
2022-12-23T15:02:26.346Z,73.07
2022-12-23T15:03:33.553Z,73.04
2022-12-23T15:04:46.741Z,73.02
2022-12-23T15:05:50.740Z,72.97